createdAt,value
2022-08-08T00:04:32.373Z,1.20
2022-08-08T00:15:10.553Z,1.20
2022-08-08T00:25:50.884Z,1.30
2022-08-08T00:36:35.252Z,1.30
2022-08-08T00:48:04.989Z,1.40
2022-08-08T00:59:05.224Z,1.40
2022-08-08T01:10:06.337Z,1.60
2022-08-08T01:21:07.867Z,1.90
2022-08-08T01:32:16.046Z,1.60
2022-08-08T01:42:55.378Z,1.40
2022-08-08T01:55:45.099Z,1.30
2022-08-08T02:04:39.612Z,1.40
2022-08-08T02:15:19.052Z,1.50
2022-08-08T02:25:58.935Z,1.40
2022-08-08T02:36:48.015Z,1.30
2022-08-08T02:47:54.948Z,1.40
2022-08-08T02:59:25.967Z,2.00
2022-08-08T03:10:33.048Z,1.60
2022-08-08T03:21:10.083Z,2.20
2022-08-08T03:32:05.762Z,1.70
2022-08-08T03:42:38.800Z,1.40
2022-08-08T03:53:11.935Z,1.60
2022-08-08T04:03:59.210Z,1.50
2022-08-08T04:14:33.359Z,1.20
2022-08-08T04:25:04.238Z,1.20
2022-08-08T04:35:39.442Z,1.40
2022-08-08T04:46:09.410Z,1.30
2022-08-08T04:56:38.732Z,1.70
2022-08-08T05:07:09.677Z,1.40
2022-08-08T05:17:53.845Z,1.50
2022-08-08T05:28:41.471Z,1.70
2022-08-08T05:39:14.095Z,1.20
2022-08-08T05:49:54.328Z,1.10
2022-08-08T06:00:26.481Z,1.30
2022-08-08T06:10:57.464Z,1.40
2022-08-08T06:21:32.551Z,1.20
2022-08-08T06:32:19.161Z,1.10
2022-08-08T06:42:58.377Z,1.30
2022-08-08T06:53:38.854Z,1.20
2022-08-08T07:04:37.033Z,1.10
2022-08-08T07:15:23.108Z,1.50
2022-08-08T07:26:01.973Z,1.00
2022-08-08T07:36:33.480Z,1.10
2022-08-08T07:47:03.397Z,1.10
2022-08-08T07:57:45.012Z,1.00
2022-08-08T08:08:20.842Z,1.20
2022-08-08T08:18:55.989Z,1.30
2022-08-08T08:29:27.691Z,1.00
2022-08-08T08:40:02.984Z,0.70
2022-08-08T08:50:35.052Z,1.10
2022-08-08T09:01:09.622Z,0.90
2022-08-08T09:11:47.567Z,0.90
2022-08-08T09:22:30.110Z,1.00
2022-08-08T09:33:12.234Z,1.20
2022-08-08T09:44:05.184Z,1.30
2022-08-08T09:54:46.707Z,1.10
2022-08-08T10:05:23.117Z,0.90
2022-08-08T10:16:00.884Z,1.00
2022-08-08T10:26:57.565Z,1.00
2022-08-08T10:37:30.215Z,1.20
2022-08-08T10:48:01.596Z,0.90
2022-08-08T10:58:33.149Z,1.20
2022-08-08T11:09:09.515Z,1.00
2022-08-08T11:19:39.990Z,1.00
2022-08-08T11:30:19.875Z,6.20
2022-08-08T11:40:57.365Z,1.50
2022-08-08T11:51:30.778Z,1.20
2022-08-08T12:02:41.506Z,1.40
2022-08-08T12:13:06.756Z,1.10
2022-08-08T12:23:42.634Z,1.40
2022-08-08T12:34:16.313Z,1.30
2022-08-08T12:44:50.415Z,1.10
2022-08-08T12:55:31.931Z,1.40
2022-08-08T13:06:13.973Z,1.60
2022-08-08T13:16:49.311Z,1.30
2022-08-08T13:27:19.944Z,1.50
2022-08-08T13:38:05.083Z,1.30
2022-08-08T13:48:46.788Z,1.40
2022-08-08T13:59:39.243Z,1.70
2022-08-08T14:10:12.285Z,1.60
2022-08-08T14:20:57.612Z,1.90
2022-08-08T14:32:06.145Z,1.40
2022-08-08T14:42:18.467Z,1.70
2022-08-08T14:53:00.134Z,1.30
2022-08-08T15:03:35.246Z,1.40
2022-08-08T15:14:13.531Z,1.50
2022-08-08T15:24:43.182Z,1.60
2022-08-08T15:35:22.552Z,1.90
2022-08-08T15:45:51.814Z,1.70
2022-08-08T15:56:23.276Z,1.70
2022-08-08T16:06:54.181Z,1.40
2022-08-08T16:17:58.086Z,1.30
2022-08-08T16:28:23.108Z,2.00
2022-08-08T16:39:09.939Z,1.60
2022-08-08T16:49:52.416Z,1.20
2022-08-08T17:00:26.796Z,2.00
2022-08-08T17:10:58.848Z,1.20
2022-08-08T17:21:44.534Z,1.90
2022-08-08T17:32:17.774Z,1.20
2022-08-08T17:42:58.259Z,1.50
2022-08-08T17:53:42.613Z,1.60
2022-08-08T18:04:19.960Z,1.60
2022-08-08T18:14:58.027Z,2.40
2022-08-08T18:25:28.563Z,1.90
2022-08-08T18:36:18.660Z,1.70
2022-08-08T18:46:57.229Z,1.90
2022-08-08T18:57:27.646Z,1.80
2022-08-08T19:08:01.148Z,2.00
2022-08-08T19:18:51.469Z,1.60
2022-08-08T19:29:22.266Z,2.00
2022-08-08T19:39:51.661Z,2.30
2022-08-08T19:50:21.016Z,1.60
2022-08-08T20:00:55.978Z,2.20
2022-08-08T20:11:25.497Z,2.10
2022-08-08T20:21:54.796Z,2.10
2022-08-08T20:32:28.141Z,2.80
2022-08-08T20:42:58.525Z,2.70
2022-08-08T20:53:58.118Z,2.50
2022-08-08T21:04:17.316Z,2.30
2022-08-08T21:14:48.986Z,2.60
2022-08-08T21:25:18.588Z,2.90
2022-08-08T21:36:19.288Z,2.70
2022-08-08T21:48:06.449Z,3.60
2022-08-08T21:57:41.977Z,3.80
2022-08-08T22:08:12.566Z,3.30
2022-08-08T22:18:44.095Z,3.80
2022-08-08T22:29:59.429Z,3.00
2022-08-08T22:40:03.091Z,3.30
2022-08-08T22:50:34.006Z,3.50
2022-08-08T23:01:33.716Z,3.80
2022-08-08T23:12:28.619Z,3.60
2022-08-08T23:22:42.429Z,3.70
2022-08-08T23:33:13.621Z,3.80
2022-08-08T23:43:48.814Z,3.60
2022-08-08T23:54:42.707Z,3.50
